Ana Sayfa
METAR-TAF:

METAR-TAF

Havaalanları :

Norwood Memorial Airport

Norwood, Massachusetts, Amerika Birleşik Devletleri

Enlem: 42-11-27N, Boylam: 071-10-26W, yükseklik: 15 m

Güncel hava durumu gözlemi

Rapor saat 08:53 UTC de 9 dakika önce yapıldı.
Rüzgar güneydan 5 kt
Sıcaklık 7°C
Nem 76%
Basınç 1013 hPa
Görüş mesafesi: 16.1 km
10000 ft yükseklikte çok bulutlu

METAR: KOWD 250853Z AUTO 18005KT 10SM OVC100 07/03 A2991 RMK AO2 SLP127 T00720033 56013

Saat: 04:02 (09:02 UTC)


TAF: eksik

4.000'den fazla havaalanı için hava durumu gözlemleri ve tahminleri (METAR ve TAF raporları).

Kullanılabilir istasyonlar harita üzerinde sarı ve kırmızı noktalarla gösterilir.

İstasyonun adını görmek için fareyi noktanın üzerinde gezdirin.

Sonrasında hava gözlem ve tahminlerini görmek için tıklayın.

Haritayı değiştirmek için: yaklaştırmak için siyah artı işaretli yeşil düğmeye ve uzaklaştırmak için de eksi işaretli düğmeye hızla tıklayın; bitişik haritalar için yeşil okları kullanın.


METAR-TAF: